createdAt,value
2022-10-05T00:01:46.865Z,102.05
2022-10-05T00:04:28.977Z,98.72
2022-10-05T00:07:06.784Z,99.45
2022-10-05T00:09:34.492Z,98.85
2022-10-05T00:12:19.661Z,99.68
2022-10-05T00:14:48.651Z,99.80
2022-10-05T00:17:20.940Z,99.30
2022-10-05T00:19:52.037Z,103.82
2022-10-05T00:22:20.327Z,102.65
2022-10-05T00:24:49.099Z,103.18
2022-10-05T00:27:24.621Z,100.88
2022-10-05T00:29:53.600Z,101.22
2022-10-05T00:32:20.225Z,101.68
2022-10-05T00:34:47.277Z,102.53
2022-10-05T00:37:14.796Z,107.57
2022-10-05T00:39:42.564Z,104.07
2022-10-05T00:42:21.214Z,106.40
2022-10-05T00:44:54.010Z,104.38
2022-10-05T00:47:54.455Z,103.72
2022-10-05T00:50:47.329Z,101.60
2022-10-05T00:53:42.443Z,103.03
2022-10-05T00:56:30.828Z,106.13
2022-10-05T00:59:28.262Z,105.38
2022-10-05T01:02:10.552Z,106.50
2022-10-05T01:04:56.858Z,106.57
2022-10-05T01:07:35.637Z,104.05
2022-10-05T01:10:23.627Z,98.35
2022-10-05T01:13:05.402Z,100.78
2022-10-05T01:15:41.942Z,117.15
2022-10-05T01:18:31.619Z,100.53
2022-10-05T01:21:01.284Z,100.45
2022-10-05T01:23:52.086Z,100.70
2022-10-05T01:26:42.748Z,108.45
2022-10-05T01:29:21.789Z,103.82
2022-10-05T01:32:35.248Z,116.50
2022-10-05T01:35:27.360Z,104.70
2022-10-05T01:38:11.667Z,103.15
2022-10-05T01:40:58.984Z,103.28
2022-10-05T01:43:37.984Z,105.10
2022-10-05T01:46:23.318Z,106.78
2022-10-05T01:49:12.075Z,104.22
2022-10-05T01:52:02.586Z,101.50
2022-10-05T01:54:50.762Z,102.70
2022-10-05T01:57:28.578Z,101.75
2022-10-05T02:00:10.401Z,107.18
2022-10-05T02:02:45.955Z,102.32
2022-10-05T02:05:19.448Z,106.65
2022-10-05T02:07:49.413Z,101.47
2022-10-05T02:10:23.327Z,105.25
2022-10-05T02:12:54.516Z,101.97
2022-10-05T02:15:27.384Z,102.95
2022-10-05T02:18:01.137Z,102.43
2022-10-05T02:20:32.994Z,101.72
2022-10-05T02:23:04.852Z,102.20
2022-10-05T02:25:36.209Z,101.75
2022-10-05T02:28:09.413Z,103.40
2022-10-05T02:30:44.860Z,101.78
2022-10-05T02:33:22.503Z,110.65
2022-10-05T02:35:49.262Z,100.32
2022-10-05T02:38:24.929Z,100.50
2022-10-05T02:40:56.507Z,100.25
2022-10-05T02:43:48.440Z,101.25
2022-10-05T02:46:28.621Z,102.05
2022-10-05T02:49:04.193Z,101.18
2022-10-05T02:51:56.789Z,102.05
2022-10-05T02:54:38.258Z,102.03
2022-10-05T02:57:10.005Z,102.35
2022-10-05T02:59:44.678Z,105.43
2022-10-05T03:02:17.147Z,102.60
2022-10-05T03:04:52.741Z,103.45
2022-10-05T03:07:36.290Z,104.28
2022-10-05T03:10:34.118Z,105.40
2022-10-05T03:13:20.732Z,100.95
2022-10-05T03:15:56.324Z,106.80
2022-10-05T03:18:30.717Z,102.78
2022-10-05T03:21:03.459Z,106.70
2022-10-05T03:23:45.203Z,100.95
2022-10-05T03:26:33.279Z,109.50
2022-10-05T03:29:24.137Z,108.38
2022-10-05T03:32:12.602Z,108.97
2022-10-05T03:34:52.441Z,111.80
2022-10-05T03:37:46.053Z,111.97
2022-10-05T03:40:44.751Z,109.57
2022-10-05T03:43:38.021Z,117.32
2022-10-05T03:46:10.720Z,119.28
2022-10-05T03:48:58.047Z,105.63
2022-10-05T03:51:45.283Z,107.75
2022-10-05T03:54:30.701Z,104.03
2022-10-05T03:57:21.749Z,104.18
2022-10-05T04:00:12.730Z,107.97
2022-10-05T04:02:50.911Z,103.45
2022-10-05T04:05:21.836Z,105.13
2022-10-05T04:08:01.564Z,103.30
2022-10-05T04:10:35.420Z,105.80
2022-10-05T04:13:11.193Z,103.55
2022-10-05T04:15:54.220Z,104.35
2022-10-05T04:18:24.930Z,111.20
2022-10-05T04:20:57.544Z,106.18
2022-10-05T04:23:24.270Z,108.85
2022-10-05T04:25:56.127Z,110.45
2022-10-05T04:28:48.697Z,109.63
2022-10-05T04:31:44.119Z,130.10
2022-10-05T04:34:30.497Z,107.53
2022-10-05T04:37:02.186Z,105.32
2022-10-05T04:39:36.560Z,114.65
2022-10-05T04:42:44.186Z,119.32
2022-10-05T04:45:32.180Z,117.07
2022-10-05T04:48:08.693Z,108.85
2022-10-05T04:50:40.590Z,107.03
2022-10-05T04:53:07.163Z,107.32
2022-10-05T04:55:46.810Z,108.07
2022-10-05T04:58:19.329Z,109.55
2022-10-05T05:00:58.822Z,108.78
2022-10-05T05:03:47.442Z,109.28
2022-10-05T05:06:19.953Z,105.60
2022-10-05T05:09:11.259Z,104.65
2022-10-05T05:11:52.835Z,109.95
2022-10-05T05:14:34.517Z,107.90
2022-10-05T05:17:25.307Z,112.40
2022-10-05T05:20:29.855Z,110.50
2022-10-05T05:23:08.667Z,103.22
2022-10-05T05:26:00.129Z,107.15
2022-10-05T05:28:42.538Z,107.45
2022-10-05T05:31:30.896Z,106.65
2022-10-05T05:34:08.682Z,103.75
2022-10-05T05:36:47.475Z,105.93
2022-10-05T05:39:25.954Z,105.25
2022-10-05T05:42:30.329Z,104.00
2022-10-05T05:45:05.683Z,104.75
2022-10-05T05:47:38.925Z,105.30
2022-10-05T05:50:30.363Z,110.70
2022-10-05T05:53:12.113Z,106.95
2022-10-05T05:55:53.627Z,108.55
2022-10-05T05:58:56.463Z,110.47
2022-10-05T06:02:05.110Z,105.75
2022-10-05T06:04:40.823Z,110.85
2022-10-05T06:07:16.417Z,107.88
2022-10-05T06:09:53.777Z,108.90
2022-10-05T06:12:25.147Z,110.00
2022-10-05T06:15:03.249Z,108.57
2022-10-05T06:17:41.171Z,106.03
2022-10-05T06:20:28.450Z,113.15
2022-10-05T06:22:59.057Z,109.57
2022-10-05T06:25:50.066Z,113.93
2022-10-05T06:28:16.770Z,108.85
2022-10-05T06:30:53.752Z,111.13
2022-10-05T06:33:46.961Z,109.40
2022-10-05T06:36:40.725Z,113.03
2022-10-05T06:39:31.500Z,120.75
2022-10-05T06:42:11.497Z,116.07
2022-10-05T06:44:44.474Z,113.07
2022-10-05T06:47:29.486Z,114.55
2022-10-05T06:50:08.091Z,115.05
2022-10-05T06:52:55.819Z,120.30
2022-10-05T06:55:43.263Z,111.63
2022-10-05T06:58:39.452Z,115.03
2022-10-05T07:01:24.550Z,109.82
2022-10-05T07:04:18.930Z,116.13
2022-10-05T07:06:55.024Z,113.28
2022-10-05T07:09:39.569Z,108.70
2022-10-05T07:12:46.785Z,104.65
2022-10-05T07:15:27.332Z,110.07
2022-10-05T07:18:07.123Z,105.95
2022-10-05T07:20:49.078Z,110.20
2022-10-05T07:23:29.499Z,105.53
2022-10-05T07:26:05.426Z,106.25
2022-10-05T07:28:40.857Z,110.70
2022-10-05T07:31:17.812Z,122.18
2022-10-05T07:34:34.905Z,116.45
2022-10-05T07:37:30.555Z,117.68
2022-10-05T07:40:09.205Z,125.78
2022-10-05T07:43:14.626Z,116.28
2022-10-05T07:45:55.760Z,112.82
2022-10-05T07:48:33.029Z,116.70
2022-10-05T07:51:19.330Z,112.50
2022-10-05T07:53:57.409Z,118.00
2022-10-05T07:56:30.715Z,111.15
2022-10-05T07:59:04.189Z,118.60
2022-10-05T08:01:45.081Z,123.05
2022-10-05T08:04:19.688Z,116.60
2022-10-05T08:07:01.002Z,119.72
2022-10-05T08:09:33.649Z,113.25
2022-10-05T08:12:21.309Z,115.63
2022-10-05T08:14:59.862Z,120.40
2022-10-05T08:17:49.456Z,110.45
2022-10-05T08:20:44.486Z,112.63
2022-10-05T08:23:36.368Z,111.80
2022-10-05T08:26:25.493Z,106.38
2022-10-05T08:29:12.921Z,109.55
2022-10-05T08:31:48.730Z,106.70
2022-10-05T08:34:30.991Z,107.78
2022-10-05T08:37:12.707Z,108.72
2022-10-05T08:39:47.215Z,107.07
2022-10-05T08:42:30.564Z,105.70
2022-10-05T08:45:15.952Z,105.82
2022-10-05T08:48:09.194Z,107.43
2022-10-05T08:51:21.152Z,106.10
2022-10-05T08:54:06.179Z,104.70
2022-10-05T08:56:41.149Z,113.80
2022-10-05T08:59:19.074Z,109.07
2022-10-05T09:02:09.013Z,113.75
2022-10-05T09:04:54.027Z,109.55
2022-10-05T09:08:12.071Z,108.22
2022-10-05T09:10:52.987Z,105.63
2022-10-05T09:13:29.131Z,101.50
2022-10-05T09:16:16.808Z,104.95
2022-10-05T09:19:04.665Z,105.35
2022-10-05T09:21:56.523Z,99.47
2022-10-05T09:24:48.513Z,99.97
2022-10-05T09:27:24.772Z,101.07
2022-10-05T09:30:50.079Z,99.18
2022-10-05T09:33:32.698Z,98.28
2022-10-05T09:36:24.817Z,99.10
2022-10-05T09:39:31.728Z,98.63
2022-10-05T09:42:11.697Z,99.03
2022-10-05T09:45:09.025Z,95.07
2022-10-05T09:48:03.030Z,97.13
2022-10-05T09:51:03.731Z,94.82
2022-10-05T09:54:10.583Z,97.50
2022-10-05T09:56:43.776Z,93.67
2022-10-05T09:59:22.648Z,89.53
2022-10-05T10:02:28.279Z,91.10
2022-10-05T10:05:29.991Z,93.77
2022-10-05T10:08:21.227Z,89.80
2022-10-05T10:11:00.911Z,90.23
2022-10-05T10:13:46.692Z,90.17
2022-10-05T10:16:23.462Z,94.97
2022-10-05T10:19:21.014Z,88.57
2022-10-05T10:22:31.484Z,88.77
2022-10-05T10:25:23.228Z,89.00
2022-10-05T10:28:06.774Z,90.30
2022-10-05T10:30:56.290Z,88.33
2022-10-05T10:33:31.400Z,90.20
2022-10-05T10:36:00.486Z,90.37
2022-10-05T10:38:55.582Z,90.20
2022-10-05T10:41:31.644Z,88.00
2022-10-05T10:44:02.548Z,87.33
2022-10-05T10:46:50.722Z,87.07
2022-10-05T10:49:54.768Z,87.10
2022-10-05T10:52:43.358Z,88.80
2022-10-05T10:55:37.155Z,86.50
2022-10-05T10:58:28.331Z,85.97
2022-10-05T11:00:58.059Z,86.93
2022-10-05T11:03:56.457Z,85.20
2022-10-05T11:07:14.217Z,85.90
2022-10-05T11:09:53.379Z,86.30
2022-10-05T11:12:34.952Z,86.33
2022-10-05T11:15:27.121Z,86.20
2022-10-05T11:18:08.544Z,87.30
2022-10-05T11:20:53.512Z,85.93
2022-10-05T11:23:50.179Z,85.00
2022-10-05T11:26:35.532Z,86.83
2022-10-05T11:29:11.142Z,85.77
2022-10-05T11:31:40.828Z,87.47
2022-10-05T11:34:22.261Z,84.97
2022-10-05T11:37:00.926Z,84.00
2022-10-05T11:39:33.544Z,84.30
2022-10-05T11:42:12.133Z,84.83
2022-10-05T11:44:46.969Z,84.70
2022-10-05T11:47:31.516Z,86.80
2022-10-05T11:50:24.938Z,88.43
2022-10-05T11:53:04.096Z,88.18
2022-10-05T11:55:41.734Z,87.75
2022-10-05T11:58:25.695Z,89.63
2022-10-05T12:01:12.626Z,91.13
2022-10-05T12:03:57.664Z,90.78
2022-10-05T12:06:46.442Z,90.00
2022-10-05T12:09:29.337Z,96.15
2022-10-05T12:12:23.267Z,90.57
2022-10-05T12:15:14.518Z,90.97
2022-10-05T12:18:01.430Z,89.78
2022-10-05T12:20:47.674Z,89.45
2022-10-05T12:23:41.878Z,92.40
2022-10-05T12:26:26.141Z,90.25
2022-10-05T12:29:13.244Z,89.03
2022-10-05T12:31:42.876Z,89.50
2022-10-05T12:34:36.646Z,88.18
2022-10-05T12:37:26.563Z,89.45
2022-10-05T12:40:18.490Z,86.40
2022-10-05T12:42:52.976Z,85.82
2022-10-05T12:45:45.879Z,87.63
2022-10-05T12:48:31.086Z,87.78
2022-10-05T12:51:07.635Z,87.80
2022-10-05T12:53:49.939Z,88.00
2022-10-05T12:56:27.278Z,85.53
2022-10-05T12:59:25.726Z,84.63
2022-10-05T13:02:10.374Z,85.60
2022-10-05T13:05:06.834Z,85.60
2022-10-05T13:07:52.026Z,86.77
2022-10-05T13:10:28.234Z,85.97
2022-10-05T13:13:18.726Z,85.00
2022-10-05T13:15:48.065Z,84.67
2022-10-05T13:18:39.318Z,85.10
2022-10-05T13:21:50.137Z,83.80
2022-10-05T13:24:28.682Z,84.77
2022-10-05T13:27:13.680Z,85.27
2022-10-05T13:29:58.389Z,85.23
2022-10-05T13:32:25.037Z,84.20
2022-10-05T13:35:13.346Z,85.17
2022-10-05T13:37:52.587Z,85.82
2022-10-05T13:40:42.234Z,86.37
2022-10-05T13:43:24.294Z,84.57
2022-10-05T13:46:17.479Z,85.97
2022-10-05T13:48:54.935Z,86.87
2022-10-05T13:51:34.501Z,84.93
2022-10-05T13:54:14.059Z,84.68
2022-10-05T13:56:45.778Z,86.07
2022-10-05T13:59:19.054Z,84.87
2022-10-05T14:02:05.076Z,85.07
2022-10-05T14:04:49.577Z,85.47
2022-10-05T14:07:30.870Z,85.87
2022-10-05T14:09:59.524Z,85.87
2022-10-05T14:12:27.575Z,87.07
2022-10-05T14:14:57.009Z,86.85
2022-10-05T14:17:29.155Z,85.57
2022-10-05T14:20:01.432Z,85.20
2022-10-05T14:22:29.420Z,84.80
2022-10-05T14:25:13.895Z,87.10
2022-10-05T14:27:57.045Z,86.90
2022-10-05T14:30:25.956Z,86.57
2022-10-05T14:32:57.317Z,88.17
2022-10-05T14:35:29.281Z,86.87
2022-10-05T14:37:57.803Z,87.57
2022-10-05T14:40:34.743Z,85.97
2022-10-05T14:43:19.902Z,86.43
2022-10-05T14:46:23.119Z,87.77
2022-10-05T14:49:16.982Z,85.20
2022-10-05T14:51:43.779Z,92.40
2022-10-05T14:54:27.702Z,86.17
2022-10-05T14:56:58.055Z,89.40
2022-10-05T14:59:30.760Z,85.80
2022-10-05T15:02:38.643Z,86.10
2022-10-05T15:05:17.013Z,86.70
2022-10-05T15:07:47.722Z,87.10
2022-10-05T15:10:36.074Z,85.80
2022-10-05T15:13:22.066Z,85.88
2022-10-05T15:15:54.568Z,86.33
2022-10-05T15:18:37.210Z,90.30
2022-10-05T15:21:23.877Z,86.67
2022-10-05T15:23:57.374Z,87.45
2022-10-05T15:26:40.740Z,87.03
2022-10-05T15:29:10.971Z,89.03
2022-10-05T15:31:45.634Z,86.88
2022-10-05T15:34:29.518Z,88.53
2022-10-05T15:37:08.514Z,87.72
2022-10-05T15:39:59.591Z,88.68
2022-10-05T15:42:45.240Z,88.47
2022-10-05T15:45:32.713Z,90.30
2022-10-05T15:48:09.928Z,89.25
2022-10-05T15:50:55.827Z,88.13
2022-10-05T15:53:44.136Z,88.97
2022-10-05T15:56:29.183Z,88.32
2022-10-05T15:59:19.700Z,94.88
2022-10-05T16:02:01.396Z,87.72
2022-10-05T16:05:05.160Z,87.50
2022-10-05T16:08:00.699Z,88.80
2022-10-05T16:10:29.162Z,89.20
2022-10-05T16:13:12.967Z,89.72
2022-10-05T16:15:48.550Z,89.88
2022-10-05T16:18:33.034Z,88.97
2022-10-05T16:21:10.771Z,91.93
2022-10-05T16:23:58.226Z,88.95
2022-10-05T16:26:47.662Z,89.55
2022-10-05T16:29:35.018Z,88.13
2022-10-05T16:32:26.324Z,89.50
2022-10-05T16:35:14.491Z,88.70
2022-10-05T16:38:11.278Z,89.97
2022-10-05T16:40:50.633Z,88.38
2022-10-05T16:43:17.259Z,89.53
2022-10-05T16:46:13.167Z,87.65
2022-10-05T16:48:50.070Z,90.47
2022-10-05T16:51:28.091Z,91.43
2022-10-05T16:54:10.207Z,89.28
2022-10-05T16:56:53.707Z,88.85
2022-10-05T16:59:42.168Z,89.15
2022-10-05T17:02:45.824Z,89.38
2022-10-05T17:05:41.894Z,88.45
2022-10-05T17:08:36.621Z,94.43
2022-10-05T17:11:21.808Z,90.18
2022-10-05T17:14:08.859Z,90.03
2022-10-05T17:16:54.423Z,92.53
2022-10-05T17:19:46.583Z,90.13
2022-10-05T17:22:27.215Z,89.85
2022-10-05T17:28:41.240Z,90.25
2022-10-05T17:31:07.999Z,91.82
2022-10-05T17:33:59.396Z,96.47
2022-10-05T17:37:14.557Z,95.97
2022-10-05T17:39:53.611Z,94.90
2022-10-05T17:42:40.500Z,92.40
2022-10-05T17:45:11.908Z,93.13
2022-10-05T17:48:00.381Z,95.95
2022-10-05T17:51:07.905Z,92.93
2022-10-05T17:54:05.964Z,94.95
2022-10-05T17:56:55.823Z,97.15
2022-10-05T17:59:52.967Z,92.00
2022-10-05T18:02:19.613Z,92.35
2022-10-05T18:05:15.992Z,90.53
2022-10-05T18:07:48.140Z,91.10
2022-10-05T18:10:40.431Z,90.35
2022-10-05T18:13:34.715Z,90.80
2022-10-05T18:16:01.743Z,92.40
2022-10-05T18:18:43.446Z,91.50
2022-10-05T18:21:23.359Z,91.60
2022-10-05T18:23:52.745Z,91.97
2022-10-05T18:26:31.773Z,92.00
2022-10-05T18:29:55.703Z,90.63
2022-10-05T18:32:47.023Z,91.85
2022-10-05T18:35:21.376Z,94.65
2022-10-05T18:38:11.018Z,90.22
2022-10-05T18:41:10.510Z,91.55
2022-10-05T18:43:46.325Z,92.20
2022-10-05T18:46:24.246Z,89.32
2022-10-05T18:48:50.835Z,92.28
2022-10-05T18:51:20.381Z,97.40
2022-10-05T18:53:47.129Z,90.47
2022-10-05T18:56:25.823Z,90.18
2022-10-05T18:58:56.715Z,90.25
2022-10-05T19:01:44.386Z,90.32
2022-10-05T19:04:36.663Z,90.00
2022-10-05T19:07:03.282Z,94.85
2022-10-05T19:09:35.988Z,93.65
2022-10-05T19:12:32.097Z,92.40
2022-10-05T19:15:18.405Z,91.20
2022-10-05T19:18:11.210Z,91.57
2022-10-05T19:21:00.881Z,92.78
2022-10-05T19:23:51.836Z,91.05
2022-10-05T19:26:38.666Z,92.13
2022-10-05T19:29:20.110Z,90.93
2022-10-05T19:31:52.997Z,90.13
2022-10-05T19:34:36.509Z,96.95
2022-10-05T19:37:22.283Z,92.20
2022-10-05T19:40:30.463Z,89.95
2022-10-05T19:42:57.090Z,92.00
2022-10-05T19:45:29.297Z,90.85
2022-10-05T19:48:45.574Z,95.22
2022-10-05T19:51:27.661Z,94.65
2022-10-05T19:53:56.139Z,95.05
2022-10-05T19:56:25.164Z,91.32
2022-10-05T19:59:00.932Z,91.30
2022-10-05T20:01:36.882Z,92.65
2022-10-05T20:04:05.027Z,93.00
2022-10-05T20:06:31.659Z,92.72
2022-10-05T20:09:00.321Z,93.10
2022-10-05T20:11:29.085Z,98.82
2022-10-05T20:14:01.834Z,91.35
2022-10-05T20:16:49.470Z,93.22
2022-10-05T20:19:49.837Z,92.18
2022-10-05T20:22:48.594Z,93.32
2022-10-05T20:25:18.297Z,96.15
2022-10-05T20:27:44.937Z,93.35
2022-10-05T20:30:15.561Z,92.38
2022-10-05T20:32:43.570Z,91.97
2022-10-05T20:35:10.688Z,94.97
2022-10-05T20:37:37.526Z,92.75
2022-10-05T20:40:05.301Z,99.30
2022-10-05T20:42:32.002Z,93.38
2022-10-05T20:44:58.799Z,92.07
2022-10-05T20:47:26.221Z,93.07
2022-10-05T20:49:55.638Z,93.00
2022-10-05T20:52:23.175Z,92.38
2022-10-05T20:54:53.510Z,95.30
2022-10-05T20:57:24.221Z,94.63
2022-10-05T20:59:51.437Z,92.40
2022-10-05T21:02:21.033Z,94.03
2022-10-05T21:04:48.108Z,94.50
2022-10-05T21:07:20.975Z,94.82
2022-10-05T21:09:47.793Z,92.63
2022-10-05T21:12:16.222Z,94.10
2022-10-05T21:14:43.130Z,95.20
2022-10-05T21:17:11.884Z,96.30
2022-10-05T21:19:39.455Z,95.35
2022-10-05T21:22:08.185Z,94.28
2022-10-05T21:24:40.734Z,92.95
2022-10-05T21:27:08.080Z,95.30
2022-10-05T21:29:36.462Z,98.57
2022-10-05T21:32:08.247Z,95.30
2022-10-05T21:34:35.061Z,96.15
2022-10-05T21:37:01.723Z,93.00
2022-10-05T21:39:28.356Z,98.70
2022-10-05T21:41:55.088Z,93.75
2022-10-05T21:44:21.914Z,93.22
2022-10-05T21:46:49.130Z,92.32
2022-10-05T21:49:19.530Z,92.07
2022-10-05T21:51:47.188Z,93.43
2022-10-05T21:54:21.011Z,92.03
2022-10-05T21:56:51.379Z,93.20
2022-10-05T21:59:21.505Z,97.38
2022-10-05T22:01:48.198Z,94.72
2022-10-05T22:04:15.084Z,92.53
2022-10-05T22:06:41.919Z,96.07
2022-10-05T22:09:08.824Z,100.57
2022-10-05T22:11:35.461Z,97.32
2022-10-05T22:14:02.750Z,92.22
2022-10-05T22:16:43.512Z,91.75
2022-10-05T22:19:16.442Z,98.38
2022-10-05T22:21:43.180Z,92.38
2022-10-05T22:24:11.614Z,92.97
2022-10-05T22:26:40.014Z,93.53
2022-10-05T22:29:06.735Z,103.45
2022-10-05T22:31:33.515Z,100.90
2022-10-05T22:34:00.176Z,95.55
2022-10-05T22:36:27.109Z,93.47
2022-10-05T22:38:53.763Z,97.18
2022-10-05T22:41:20.508Z,97.82
2022-10-05T22:43:49.942Z,94.97
2022-10-05T22:46:17.117Z,93.28
2022-10-05T22:48:43.820Z,95.18
2022-10-05T22:51:10.568Z,94.55
2022-10-05T22:53:37.250Z,95.97
2022-10-05T22:56:13.861Z,95.85
2022-10-05T22:58:41.857Z,94.28
2022-10-05T23:01:19.046Z,94.13
2022-10-05T23:03:46.010Z,97.20
2022-10-05T23:06:15.542Z,94.68
2022-10-05T23:08:43.345Z,93.88
2022-10-05T23:11:12.925Z,95.70
2022-10-05T23:13:40.318Z,97.35
2022-10-05T23:16:09.347Z,95.10
2022-10-05T23:18:36.691Z,95.22
2022-10-05T23:21:05.613Z,94.47
2022-10-05T23:23:32.238Z,93.47
2022-10-05T23:25:59.949Z,97.15
2022-10-05T23:28:28.175Z,93.32
2022-10-05T23:31:03.088Z,95.90
2022-10-05T23:33:30.447Z,97.85
2022-10-05T23:36:06.297Z,94.82
2022-10-05T23:38:34.191Z,101.10
2022-10-05T23:41:00.967Z,97.28
2022-10-05T23:43:28.232Z,95.30
2022-10-05T23:45:56.317Z,94.47
2022-10-05T23:48:23.058Z,96.40
2022-10-05T23:50:50.224Z,99.20
2022-10-05T23:53:18.019Z,94.70
2022-10-05T23:55:45.215Z,96.53
2022-10-05T23:58:12.287Z,95.30
